sensor_id;sensor_type;location;lat;lon;timestamp;temperature;humidity
37232;DHT22;23125;48.156;15.954;2023-11-22T00:00:29;11.30;66.90
37232;DHT22;23125;48.156;15.954;2023-11-22T00:02:57;11.20;66.80
37232;DHT22;23125;48.156;15.954;2023-11-22T00:05:23;11.20;66.80
37232;DHT22;23125;48.156;15.954;2023-11-22T00:07:48;11.20;66.80
37232;DHT22;23125;48.156;15.954;2023-11-22T00:10:14;11.20;66.80
37232;DHT22;23125;48.156;15.954;2023-11-22T00:12:40;11.20;66.90
37232;DHT22;23125;48.156;15.954;2023-11-22T00:15:07;11.20;67.00
37232;DHT22;23125;48.156;15.954;2023-11-22T00:17:34;11.20;66.90
37232;DHT22;23125;48.156;15.954;2023-11-22T00:20:00;11.30;67.00
37232;DHT22;23125;48.156;15.954;2023-11-22T00:22:29;11.30;67.00
37232;DHT22;23125;48.156;15.954;2023-11-22T00:24:59;11.30;67.00
37232;DHT22;23125;48.156;15.954;2023-11-22T00:27:29;11.30;67.00
37232;DHT22;23125;48.156;15.954;2023-11-22T00:29:58;11.30;67.00
37232;DHT22;23125;48.156;15.954;2023-11-22T00:32:25;11.30;67.00
37232;DHT22;23125;48.156;15.954;2023-11-22T00:34:54;11.30;67.00
37232;DHT22;23125;48.156;15.954;2023-11-22T00:37:20;11.30;67.10
37232;DHT22;23125;48.156;15.954;2023-11-22T00:39:45;11.30;67.10
37232;DHT22;23125;48.156;15.954;2023-11-22T00:42:11;11.30;67.00
37232;DHT22;23125;48.156;15.954;2023-11-22T00:44:37;11.30;67.10
37232;DHT22;23125;48.156;15.954;2023-11-22T00:47:03;11.30;67.20
37232;DHT22;23125;48.156;15.954;2023-11-22T00:49:29;11.30;67.10
37232;DHT22;23125;48.156;15.954;2023-11-22T00:51:55;11.30;67.00
37232;DHT22;23125;48.156;15.954;2023-11-22T00:54:21;11.30;67.10
37232;DHT22;23125;48.156;15.954;2023-11-22T00:56:47;11.30;66.90
37232;DHT22;23125;48.156;15.954;2023-11-22T00:59:13;11.30;67.00
37232;DHT22;23125;48.156;15.954;2023-11-22T01:01:40;11.30;67.20
37232;DHT22;23125;48.156;15.954;2023-11-22T01:04:07;11.30;67.20
37232;DHT22;23125;48.156;15.954;2023-11-22T01:06:33;11.30;67.00
37232;DHT22;23125;48.156;15.954;2023-11-22T01:09:00;11.30;67.20
37232;DHT22;23125;48.156;15.954;2023-11-22T01:11:25;11.30;67.30
37232;DHT22;23125;48.156;15.954;2023-11-22T01:13:52;11.30;67.30
37232;DHT22;23125;48.156;15.954;2023-11-22T01:16:17;11.30;67.30
37232;DHT22;23125;48.156;15.954;2023-11-22T01:18:43;11.30;67.20
37232;DHT22;23125;48.156;15.954;2023-11-22T01:21:12;11.30;67.20
37232;DHT22;23125;48.156;15.954;2023-11-22T01:23:37;11.30;67.30
37232;DHT22;23125;48.156;15.954;2023-11-22T01:26:03;11.30;67.10
37232;DHT22;23125;48.156;15.954;2023-11-22T01:28:29;11.30;67.20
37232;DHT22;23125;48.156;15.954;2023-11-22T01:31:00;11.30;67.30
37232;DHT22;23125;48.156;15.954;2023-11-22T01:33:29;11.30;67.30
37232;DHT22;23125;48.156;15.954;2023-11-22T01:35:55;11.30;67.30
37232;DHT22;23125;48.156;15.954;2023-11-22T01:38:21;11.30;66.90
37232;DHT22;23125;48.156;15.954;2023-11-22T01:40:51;11.20;67.00
37232;DHT22;23125;48.156;15.954;2023-11-22T01:43:19;11.20;67.00
37232;DHT22;23125;48.156;15.954;2023-11-22T01:45:45;11.20;66.70
37232;DHT22;23125;48.156;15.954;2023-11-22T01:48:11;11.10;66.90
37232;DHT22;23125;48.156;15.954;2023-11-22T01:50:42;11.10;66.90
37232;DHT22;23125;48.156;15.954;2023-11-22T01:53:11;11.10;66.90
37232;DHT22;23125;48.156;15.954;2023-11-22T01:55:39;11.10;67.10
37232;DHT22;23125;48.156;15.954;2023-11-22T01:58:06;11.00;66.80
37232;DHT22;23125;48.156;15.954;2023-11-22T02:00:36;11.00;66.90
37232;DHT22;23125;48.156;15.954;2023-11-22T02:03:05;11.00;66.90
37232;DHT22;23125;48.156;15.954;2023-11-22T02:05:31;11.00;67.00
37232;DHT22;23125;48.156;15.954;2023-11-22T02:07:59;11.00;67.00
37232;DHT22;23125;48.156;15.954;2023-11-22T02:10:25;11.00;67.00
37232;DHT22;23125;48.156;15.954;2023-11-22T02:12:51;11.00;66.80
37232;DHT22;23125;48.156;15.954;2023-11-22T02:15:17;10.90;66.70
37232;DHT22;23125;48.156;15.954;2023-11-22T02:17:44;10.90;66.90
37232;DHT22;23125;48.156;15.954;2023-11-22T02:20:10;10.90;66.30
37232;DHT22;23125;48.156;15.954;2023-11-22T02:22:46;10.90;66.40
37232;DHT22;23125;48.156;15.954;2023-11-22T02:25:12;10.80;66.50
37232;DHT22;23125;48.156;15.954;2023-11-22T02:27:39;10.80;66.40
37232;DHT22;23125;48.156;15.954;2023-11-22T02:30:06;10.80;66.60
37232;DHT22;23125;48.156;15.954;2023-11-22T02:32:32;10.70;66.60
37232;DHT22;23125;48.156;15.954;2023-11-22T02:34:59;10.70;66.40
37232;DHT22;23125;48.156;15.954;2023-11-22T02:37:26;10.70;66.20
37232;DHT22;23125;48.156;15.954;2023-11-22T02:42:24;10.60;66.30
37232;DHT22;23125;48.156;15.954;2023-11-22T02:44:49;10.60;66.50
37232;DHT22;23125;48.156;15.954;2023-11-22T02:47:15;10.60;66.30
37232;DHT22;23125;48.156;15.954;2023-11-22T02:49:41;10.60;66.30
37232;DHT22;23125;48.156;15.954;2023-11-22T02:52:07;10.50;66.40
37232;DHT22;23125;48.156;15.954;2023-11-22T02:54:33;10.50;66.50
37232;DHT22;23125;48.156;15.954;2023-11-22T02:56:59;10.50;66.60
37232;DHT22;23125;48.156;15.954;2023-11-22T02:59:26;10.50;66.40
37232;DHT22;23125;48.156;15.954;2023-11-22T03:01:52;10.50;66.40
37232;DHT22;23125;48.156;15.954;2023-11-22T03:04:17;10.50;66.30
37232;DHT22;23125;48.156;15.954;2023-11-22T03:06:43;10.40;65.80
37232;DHT22;23125;48.156;15.954;2023-11-22T03:09:09;10.40;65.90
37232;DHT22;23125;48.156;15.954;2023-11-22T03:11:35;10.40;66.00
37232;DHT22;23125;48.156;15.954;2023-11-22T03:14:01;10.30;65.90
37232;DHT22;23125;48.156;15.954;2023-11-22T03:16:30;10.30;65.60
37232;DHT22;23125;48.156;15.954;2023-11-22T03:18:56;10.20;65.70
37232;DHT22;23125;48.156;15.954;2023-11-22T03:21:23;10.20;65.70
37232;DHT22;23125;48.156;15.954;2023-11-22T03:23:51;10.10;65.60
37232;DHT22;23125;48.156;15.954;2023-11-22T03:26:18;10.10;65.60
37232;DHT22;23125;48.156;15.954;2023-11-22T03:28:44;10.00;65.50
37232;DHT22;23125;48.156;15.954;2023-11-22T03:31:10;10.00;65.50
37232;DHT22;23125;48.156;15.954;2023-11-22T03:33:36;9.90;65.60
37232;DHT22;23125;48.156;15.954;2023-11-22T03:36:04;9.90;65.60
37232;DHT22;23125;48.156;15.954;2023-11-22T03:38:30;9.90;65.80
37232;DHT22;23125;48.156;15.954;2023-11-22T03:40:56;9.80;65.60
37232;DHT22;23125;48.156;15.954;2023-11-22T03:43:22;9.80;65.70
37232;DHT22;23125;48.156;15.954;2023-11-22T03:45:48;9.80;65.80
37232;DHT22;23125;48.156;15.954;2023-11-22T03:48:13;9.70;65.70
37232;DHT22;23125;48.156;15.954;2023-11-22T03:50:39;9.70;65.60
37232;DHT22;23125;48.156;15.954;2023-11-22T03:53:05;9.70;65.80
37232;DHT22;23125;48.156;15.954;2023-11-22T03:55:31;9.70;66.00
37232;DHT22;23125;48.156;15.954;2023-11-22T03:57:57;9.70;66.00
37232;DHT22;23125;48.156;15.954;2023-11-22T04:00:22;9.70;65.60
37232;DHT22;23125;48.156;15.954;2023-11-22T04:02:50;9.60;65.60
37232;DHT22;23125;48.156;15.954;2023-11-22T04:05:16;9.60;65.70
37232;DHT22;23125;48.156;15.954;2023-11-22T04:07:42;9.60;65.80
37232;DHT22;23125;48.156;15.954;2023-11-22T04:10:08;9.60;65.90
37232;DHT22;23125;48.156;15.954;2023-11-22T04:12:34;9.60;66.00
37232;DHT22;23125;48.156;15.954;2023-11-22T04:15:00;9.60;65.70
37232;DHT22;23125;48.156;15.954;2023-11-22T04:17:26;9.60;66.40
37232;DHT22;23125;48.156;15.954;2023-11-22T04:19:52;9.60;65.80
37232;DHT22;23125;48.156;15.954;2023-11-22T04:22:18;9.60;65.90
37232;DHT22;23125;48.156;15.954;2023-11-22T04:24:44;9.60;65.90
37232;DHT22;23125;48.156;15.954;2023-11-22T04:27:11;9.60;66.00
37232;DHT22;23125;48.156;15.954;2023-11-22T04:29:37;9.60;65.90
37232;DHT22;23125;48.156;15.954;2023-11-22T04:32:03;9.60;65.80
37232;DHT22;23125;48.156;15.954;2023-11-22T04:34:29;9.60;65.80
37232;DHT22;23125;48.156;15.954;2023-11-22T04:36:55;9.60;65.90
37232;DHT22;23125;48.156;15.954;2023-11-22T04:39:20;9.60;66.00
37232;DHT22;23125;48.156;15.954;2023-11-22T04:41:46;9.60;65.90
37232;DHT22;23125;48.156;15.954;2023-11-22T04:44:12;9.60;65.80
37232;DHT22;23125;48.156;15.954;2023-11-22T04:46:38;9.60;65.70
37232;DHT22;23125;48.156;15.954;2023-11-22T04:49:04;9.50;65.60
37232;DHT22;23125;48.156;15.954;2023-11-22T04:51:29;9.50;65.60
37232;DHT22;23125;48.156;15.954;2023-11-22T04:53:55;9.50;65.60
37232;DHT22;23125;48.156;15.954;2023-11-22T04:56:21;9.50;65.70
37232;DHT22;23125;48.156;15.954;2023-11-22T04:58:47;9.50;65.80
37232;DHT22;23125;48.156;15.954;2023-11-22T05:01:13;9.50;65.70
37232;DHT22;23125;48.156;15.954;2023-11-22T05:03:39;9.50;65.80
37232;DHT22;23125;48.156;15.954;2023-11-22T05:06:05;9.50;65.90
37232;DHT22;23125;48.156;15.954;2023-11-22T05:08:32;9.50;65.80
37232;DHT22;23125;48.156;15.954;2023-11-22T05:11:00;9.50;65.60
37232;DHT22;23125;48.156;15.954;2023-11-22T05:13:25;9.50;65.50
37232;DHT22;23125;48.156;15.954;2023-11-22T05:15:51;9.40;65.40
37232;DHT22;23125;48.156;15.954;2023-11-22T05:18:19;9.40;65.20
37232;DHT22;23125;48.156;15.954;2023-11-22T05:20:45;9.40;65.40
37232;DHT22;23125;48.156;15.954;2023-11-22T05:23:14;9.30;65.40
37232;DHT22;23125;48.156;15.954;2023-11-22T05:25:39;9.30;65.50
37232;DHT22;23125;48.156;15.954;2023-11-22T05:28:05;9.30;65.50
37232;DHT22;23125;48.156;15.954;2023-11-22T05:30:31;9.30;65.50
37232;DHT22;23125;48.156;15.954;2023-11-22T05:32:57;9.20;64.90
37232;DHT22;23125;48.156;15.954;2023-11-22T05:35:23;9.20;65.20
37232;DHT22;23125;48.156;15.954;2023-11-22T05:37:48;9.20;65.40
37232;DHT22;23125;48.156;15.954;2023-11-22T05:40:14;9.10;65.40
37232;DHT22;23125;48.156;15.954;2023-11-22T05:42:41;9.10;65.50
37232;DHT22;23125;48.156;15.954;2023-11-22T05:45:08;9.10;65.60
37232;DHT22;23125;48.156;15.954;2023-11-22T05:47:34;9.10;65.60
37232;DHT22;23125;48.156;15.954;2023-11-22T05:50:00;9.10;65.60
37232;DHT22;23125;48.156;15.954;2023-11-22T05:52:26;9.10;65.30
37232;DHT22;23125;48.156;15.954;2023-11-22T05:54:51;9.10;65.30
37232;DHT22;23125;48.156;15.954;2023-11-22T05:57:17;9.10;65.50
37232;DHT22;23125;48.156;15.954;2023-11-22T05:59:45;9.00;65.20
37232;DHT22;23125;48.156;15.954;2023-11-22T06:02:12;9.00;65.20
37232;DHT22;23125;48.156;15.954;2023-11-22T06:04:38;9.00;64.70
37232;DHT22;23125;48.156;15.954;2023-11-22T06:07:04;8.90;64.90
37232;DHT22;23125;48.156;15.954;2023-11-22T06:09:30;9.00;65.10
37232;DHT22;23125;48.156;15.954;2023-11-22T06:11:56;8.90;65.20
37232;DHT22;23125;48.156;15.954;2023-11-22T06:14:22;8.90;65.20
37232;DHT22;23125;48.156;15.954;2023-11-22T06:16:48;8.90;65.30
37232;DHT22;23125;48.156;15.954;2023-11-22T06:19:13;8.90;65.30
37232;DHT22;23125;48.156;15.954;2023-11-22T06:21:40;8.90;65.10
37232;DHT22;23125;48.156;15.954;2023-11-22T06:24:06;8.90;65.20
37232;DHT22;23125;48.156;15.954;2023-11-22T06:26:34;8.90;65.20
37232;DHT22;23125;48.156;15.954;2023-11-22T06:29:01;8.90;65.20
37232;DHT22;23125;48.156;15.954;2023-11-22T06:31:28;8.90;65.20
37232;DHT22;23125;48.156;15.954;2023-11-22T06:33:54;8.90;65.10
37232;DHT22;23125;48.156;15.954;2023-11-22T06:36:21;8.80;64.90
37232;DHT22;23125;48.156;15.954;2023-11-22T06:38:47;8.80;64.90
37232;DHT22;23125;48.156;15.954;2023-11-22T06:41:13;8.80;65.00
37232;DHT22;23125;48.156;15.954;2023-11-22T06:43:38;8.80;65.20
37232;DHT22;23125;48.156;15.954;2023-11-22T06:46:04;8.80;65.10
37232;DHT22;23125;48.156;15.954;2023-11-22T06:48:32;8.70;65.10
37232;DHT22;23125;48.156;15.954;2023-11-22T06:50:58;8.80;65.30
37232;DHT22;23125;48.156;15.954;2023-11-22T06:53:24;8.70;65.30
37232;DHT22;23125;48.156;15.954;2023-11-22T06:55:51;8.80;65.40
37232;DHT22;23125;48.156;15.954;2023-11-22T06:58:17;8.80;65.50
37232;DHT22;23125;48.156;15.954;2023-11-22T07:00:43;8.80;65.50
37232;DHT22;23125;48.156;15.954;2023-11-22T07:03:09;8.80;65.40
37232;DHT22;23125;48.156;15.954;2023-11-22T07:05:36;8.80;65.10
37232;DHT22;23125;48.156;15.954;2023-11-22T07:08:02;8.70;65.10
37232;DHT22;23125;48.156;15.954;2023-11-22T07:10:29;8.80;65.30
37232;DHT22;23125;48.156;15.954;2023-11-22T07:13:02;8.70;65.20
37232;DHT22;23125;48.156;15.954;2023-11-22T07:15:28;8.70;65.90
37232;DHT22;23125;48.156;15.954;2023-11-22T07:17:55;8.70;65.30
37232;DHT22;23125;48.156;15.954;2023-11-22T07:20:21;8.70;65.30
37232;DHT22;23125;48.156;15.954;2023-11-22T07:22:47;8.70;65.40
37232;DHT22;23125;48.156;15.954;2023-11-22T07:25:21;8.70;65.40
37232;DHT22;23125;48.156;15.954;2023-11-22T07:27:51;8.70;65.30
37232;DHT22;23125;48.156;15.954;2023-11-22T07:30:19;8.70;65.10
37232;DHT22;23125;48.156;15.954;2023-11-22T07:32:46;8.70;65.10
37232;DHT22;23125;48.156;15.954;2023-11-22T07:35:11;8.60;64.90
37232;DHT22;23125;48.156;15.954;2023-11-22T07:37:38;8.60;65.00
37232;DHT22;23125;48.156;15.954;2023-11-22T07:40:10;8.60;65.10
37232;DHT22;23125;48.156;15.954;2023-11-22T07:42:39;8.60;65.20
37232;DHT22;23125;48.156;15.954;2023-11-22T07:45:06;8.60;65.30
37232;DHT22;23125;48.156;15.954;2023-11-22T07:47:32;8.60;65.40
37232;DHT22;23125;48.156;15.954;2023-11-22T07:49:58;8.60;65.20
37232;DHT22;23125;48.156;15.954;2023-11-22T07:52:24;8.60;65.20
37232;DHT22;23125;48.156;15.954;2023-11-22T07:54:57;8.60;64.90
37232;DHT22;23125;48.156;15.954;2023-11-22T07:57:23;8.50;65.00
37232;DHT22;23125;48.156;15.954;2023-11-22T07:59:49;8.60;65.20
37232;DHT22;23125;48.156;15.954;2023-11-22T08:02:16;8.50;65.10
37232;DHT22;23125;48.156;15.954;2023-11-22T08:04:45;8.50;65.00
37232;DHT22;23125;48.156;15.954;2023-11-22T08:07:11;8.50;64.90
37232;DHT22;23125;48.156;15.954;2023-11-22T08:09:38;8.40;65.10
37232;DHT22;23125;48.156;15.954;2023-11-22T08:12:04;8.40;65.20
37232;DHT22;23125;48.156;15.954;2023-11-22T08:14:30;8.40;65.30
37232;DHT22;23125;48.156;15.954;2023-11-22T08:16:56;8.40;65.30
37232;DHT22;23125;48.156;15.954;2023-11-22T08:19:22;8.40;65.20
37232;DHT22;23125;48.156;15.954;2023-11-22T08:21:49;8.40;65.40
37232;DHT22;23125;48.156;15.954;2023-11-22T08:24:15;8.40;65.30
37232;DHT22;23125;48.156;15.954;2023-11-22T08:26:41;8.40;65.10
37232;DHT22;23125;48.156;15.954;2023-11-22T08:29:07;8.40;65.00
37232;DHT22;23125;48.156;15.954;2023-11-22T08:31:37;8.30;65.00
37232;DHT22;23125;48.156;15.954;2023-11-22T08:34:03;8.30;65.00
37232;DHT22;23125;48.156;15.954;2023-11-22T08:36:33;8.30;65.20
37232;DHT22;23125;48.156;15.954;2023-11-22T08:39:04;8.30;65.20
37232;DHT22;23125;48.156;15.954;2023-11-22T08:41:31;8.30;65.30
37232;DHT22;23125;48.156;15.954;2023-11-22T08:43:57;8.30;65.40
37232;DHT22;23125;48.156;15.954;2023-11-22T08:46:23;8.30;65.60
37232;DHT22;23125;48.156;15.954;2023-11-22T08:48:49;8.30;65.80
37232;DHT22;23125;48.156;15.954;2023-11-22T08:51:17;8.30;65.50
37232;DHT22;23125;48.156;15.954;2023-11-22T08:53:43;8.30;65.30
37232;DHT22;23125;48.156;15.954;2023-11-22T08:56:12;8.30;65.40
37232;DHT22;23125;48.156;15.954;2023-11-22T08:58:39;8.30;65.60
37232;DHT22;23125;48.156;15.954;2023-11-22T09:01:06;8.30;65.60
37232;DHT22;23125;48.156;15.954;2023-11-22T09:03:33;8.30;65.50
37232;DHT22;23125;48.156;15.954;2023-11-22T09:05:59;8.40;65.60
37232;DHT22;23125;48.156;15.954;2023-11-22T09:08:26;8.40;65.50
37232;DHT22;23125;48.156;15.954;2023-11-22T09:10:52;8.30;65.60
37232;DHT22;23125;48.156;15.954;2023-11-22T09:13:18;8.40;65.80
37232;DHT22;23125;48.156;15.954;2023-11-22T09:15:45;8.40;65.70
37232;DHT22;23125;48.156;15.954;2023-11-22T09:18:11;8.40;65.70
37232;DHT22;23125;48.156;15.954;2023-11-22T09:20:39;8.40;65.50
37232;DHT22;23125;48.156;15.954;2023-11-22T09:23:10;8.40;65.40
37232;DHT22;23125;48.156;15.954;2023-11-22T09:25:36;8.40;65.40
37232;DHT22;23125;48.156;15.954;2023-11-22T09:28:02;8.40;65.40
37232;DHT22;23125;48.156;15.954;2023-11-22T09:30:31;8.40;64.90
37232;DHT22;23125;48.156;15.954;2023-11-22T09:33:09;8.30;64.90
37232;DHT22;23125;48.156;15.954;2023-11-22T09:35:37;8.30;65.10
37232;DHT22;23125;48.156;15.954;2023-11-22T09:38:05;8.30;65.30
37232;DHT22;23125;48.156;15.954;2023-11-22T09:40:41;8.30;65.30
37232;DHT22;23125;48.156;15.954;2023-11-22T09:43:08;8.30;65.40
37232;DHT22;23125;48.156;15.954;2023-11-22T09:45:34;8.40;65.40
37232;DHT22;23125;48.156;15.954;2023-11-22T09:48:02;8.30;65.20
37232;DHT22;23125;48.156;15.954;2023-11-22T09:50:49;8.40;65.40
37232;DHT22;23125;48.156;15.954;2023-11-22T09:53:43;8.30;65.40
37232;DHT22;23125;48.156;15.954;2023-11-22T09:56:10;8.30;65.40
37232;DHT22;23125;48.156;15.954;2023-11-22T09:58:41;8.30;65.30
37232;DHT22;23125;48.156;15.954;2023-11-22T10:01:13;8.30;65.40
37232;DHT22;23125;48.156;15.954;2023-11-22T10:03:40;8.30;66.00
37232;DHT22;23125;48.156;15.954;2023-11-22T10:06:07;8.30;65.20
37232;DHT22;23125;48.156;15.954;2023-11-22T10:08:33;8.30;65.00
37232;DHT22;23125;48.156;15.954;2023-11-22T10:11:00;8.20;65.00
37232;DHT22;23125;48.156;15.954;2023-11-22T10:13:26;8.20;65.10
37232;DHT22;23125;48.156;15.954;2023-11-22T10:15:53;8.20;65.00
37232;DHT22;23125;48.156;15.954;2023-11-22T10:18:20;8.20;65.00
37232;DHT22;23125;48.156;15.954;2023-11-22T10:20:50;8.20;65.30
37232;DHT22;23125;48.156;15.954;2023-11-22T10:23:19;8.20;65.40
37232;DHT22;23125;48.156;15.954;2023-11-22T10:25:53;8.20;65.20
37232;DHT22;23125;48.156;15.954;2023-11-22T10:28:20;8.20;65.30
37232;DHT22;23125;48.156;15.954;2023-11-22T10:30:48;8.20;65.30
37232;DHT22;23125;48.156;15.954;2023-11-22T10:33:15;8.20;65.30
37232;DHT22;23125;48.156;15.954;2023-11-22T10:35:44;8.20;65.10
37232;DHT22;23125;48.156;15.954;2023-11-22T10:38:13;8.20;65.10
37232;DHT22;23125;48.156;15.954;2023-11-22T10:40:39;8.20;65.30
37232;DHT22;23125;48.156;15.954;2023-11-22T10:43:07;8.20;65.40
37232;DHT22;23125;48.156;15.954;2023-11-22T10:45:34;8.20;65.40
37232;DHT22;23125;48.156;15.954;2023-11-22T10:48:01;8.20;65.30
37232;DHT22;23125;48.156;15.954;2023-11-22T10:50:27;8.20;65.20
37232;DHT22;23125;48.156;15.954;2023-11-22T10:52:57;8.20;65.20
37232;DHT22;23125;48.156;15.954;2023-11-22T10:55:32;8.20;65.00
37232;DHT22;23125;48.156;15.954;2023-11-22T10:58:02;8.20;64.90
37232;DHT22;23125;48.156;15.954;2023-11-22T11:00:31;8.20;65.00
37232;DHT22;23125;48.156;15.954;2023-11-22T11:03:18;8.20;65.20
37232;DHT22;23125;48.156;15.954;2023-11-22T11:05:58;8.20;65.40
37232;DHT22;23125;48.156;15.954;2023-11-22T11:08:26;8.20;65.20
37232;DHT22;23125;48.156;15.954;2023-11-22T11:10:53;8.20;65.70
37232;DHT22;23125;48.156;15.954;2023-11-22T11:13:22;8.20;65.10
37232;DHT22;23125;48.156;15.954;2023-11-22T11:15:49;8.20;65.10
37232;DHT22;23125;48.156;15.954;2023-11-22T11:18:17;8.10;65.00
37232;DHT22;23125;48.156;15.954;2023-11-22T11:23:20;8.20;65.30
37232;DHT22;23125;48.156;15.954;2023-11-22T11:25:53;8.20;66.10
37232;DHT22;23125;48.156;15.954;2023-11-22T11:28:20;8.20;65.30
37232;DHT22;23125;48.156;15.954;2023-11-22T11:30:50;8.20;65.40
37232;DHT22;23125;48.156;15.954;2023-11-22T11:33:33;8.20;65.40
37232;DHT22;23125;48.156;15.954;2023-11-22T11:36:02;8.30;65.30
37232;DHT22;23125;48.156;15.954;2023-11-22T11:38:35;8.20;65.10
37232;DHT22;23125;48.156;15.954;2023-11-22T11:41:11;8.20;65.20
37232;DHT22;23125;48.156;15.954;2023-11-22T11:43:45;8.30;65.30
37232;DHT22;23125;48.156;15.954;2023-11-22T11:46:15;8.30;65.10
37232;DHT22;23125;48.156;15.954;2023-11-22T11:48:52;8.20;64.70
37232;DHT22;23125;48.156;15.954;2023-11-22T11:51:20;8.20;64.90
37232;DHT22;23125;48.156;15.954;2023-11-22T11:53:47;8.20;64.90
37232;DHT22;23125;48.156;15.954;2023-11-22T11:56:13;8.20;65.00
37232;DHT22;23125;48.156;15.954;2023-11-22T11:58:42;8.20;65.20
37232;DHT22;23125;48.156;15.954;2023-11-22T12:01:09;8.20;64.90
37232;DHT22;23125;48.156;15.954;2023-11-22T12:03:37;8.20;65.00
37232;DHT22;23125;48.156;15.954;2023-11-22T12:06:07;8.30;65.00
37232;DHT22;23125;48.156;15.954;2023-11-22T12:08:33;8.30;65.10
37232;DHT22;23125;48.156;15.954;2023-11-22T12:11:05;8.30;65.10
37232;DHT22;23125;48.156;15.954;2023-11-22T12:13:37;8.30;65.00
37232;DHT22;23125;48.156;15.954;2023-11-22T12:16:16;8.30;65.00
37232;DHT22;23125;48.156;15.954;2023-11-22T12:18:47;8.30;65.00
37232;DHT22;23125;48.156;15.954;2023-11-22T12:21:14;8.30;65.00
37232;DHT22;23125;48.156;15.954;2023-11-22T12:23:42;8.30;64.90
37232;DHT22;23125;48.156;15.954;2023-11-22T12:26:19;8.30;65.10
37232;DHT22;23125;48.156;15.954;2023-11-22T12:28:48;8.30;65.30
37232;DHT22;23125;48.156;15.954;2023-11-22T12:31:15;8.30;65.10
37232;DHT22;23125;48.156;15.954;2023-11-22T12:33:42;8.30;64.80
37232;DHT22;23125;48.156;15.954;2023-11-22T12:36:09;8.30;64.90
37232;DHT22;23125;48.156;15.954;2023-11-22T12:38:36;8.30;64.90
37232;DHT22;23125;48.156;15.954;2023-11-22T12:41:03;8.30;65.00
37232;DHT22;23125;48.156;15.954;2023-11-22T12:43:35;8.40;65.30
37232;DHT22;23125;48.156;15.954;2023-11-22T12:46:02;8.40;65.30
37232;DHT22;23125;48.156;15.954;2023-11-22T12:48:28;8.40;65.30
37232;DHT22;23125;48.156;15.954;2023-11-22T12:50:59;8.50;65.50
37232;DHT22;23125;48.156;15.954;2023-11-22T12:53:26;8.50;65.30
37232;DHT22;23125;48.156;15.954;2023-11-22T12:55:56;8.50;65.30
37232;DHT22;23125;48.156;15.954;2023-11-22T12:58:26;8.50;64.90
37232;DHT22;23125;48.156;15.954;2023-11-22T13:00:54;8.50;64.50
37232;DHT22;23125;48.156;15.954;2023-11-22T13:03:24;8.50;64.50
37232;DHT22;23125;48.156;15.954;2023-11-22T13:05:54;8.50;64.50
37232;DHT22;23125;48.156;15.954;2023-11-22T13:08:21;8.50;64.50
37232;DHT22;23125;48.156;15.954;2023-11-22T13:10:55;8.40;64.50
37232;DHT22;23125;48.156;15.954;2023-11-22T13:13:21;8.40;64.50
37232;DHT22;23125;48.156;15.954;2023-11-22T13:15:47;8.40;64.30
37232;DHT22;23125;48.156;15.954;2023-11-22T13:18:15;8.40;64.40
37232;DHT22;23125;48.156;15.954;2023-11-22T13:20:42;8.40;64.50
37232;DHT22;23125;48.156;15.954;2023-11-22T13:23:08;8.40;64.50
37232;DHT22;23125;48.156;15.954;2023-11-22T13:25:34;8.40;64.50
37232;DHT22;23125;48.156;15.954;2023-11-22T13:28:00;8.40;64.50
37232;DHT22;23125;48.156;15.954;2023-11-22T13:30:27;8.40;64.40
37232;DHT22;23125;48.156;15.954;2023-11-22T13:32:55;8.30;64.20
37232;DHT22;23125;48.156;15.954;2023-11-22T13:35:25;8.30;64.10
37232;DHT22;23125;48.156;15.954;2023-11-22T13:37:57;8.30;64.10
37232;DHT22;23125;48.156;15.954;2023-11-22T13:40:23;8.30;64.20
37232;DHT22;23125;48.156;15.954;2023-11-22T13:42:52;8.30;64.20
37232;DHT22;23125;48.156;15.954;2023-11-22T13:45:20;8.30;64.20
37232;DHT22;23125;48.156;15.954;2023-11-22T13:47:47;8.30;64.20
37232;DHT22;23125;48.156;15.954;2023-11-22T13:50:18;8.20;64.10
37232;DHT22;23125;48.156;15.954;2023-11-22T13:52:53;8.20;64.10
37232;DHT22;23125;48.156;15.954;2023-11-22T13:55:19;8.20;64.00
37232;DHT22;23125;48.156;15.954;2023-11-22T13:57:50;8.20;64.10
37232;DHT22;23125;48.156;15.954;2023-11-22T14:00:17;8.20;64.10
37232;DHT22;23125;48.156;15.954;2023-11-22T14:02:49;8.20;63.90
37232;DHT22;23125;48.156;15.954;2023-11-22T14:05:25;8.10;63.80
37232;DHT22;23125;48.156;15.954;2023-11-22T14:07:51;8.10;63.70
37232;DHT22;23125;48.156;15.954;2023-11-22T14:10:18;8.10;63.90
37232;DHT22;23125;48.156;15.954;2023-11-22T14:12:45;8.10;64.00
37232;DHT22;23125;48.156;15.954;2023-11-22T14:15:12;8.10;64.00
37232;DHT22;23125;48.156;15.954;2023-11-22T14:17:39;8.10;64.00
37232;DHT22;23125;48.156;15.954;2023-11-22T14:20:13;8.10;64.10
37232;DHT22;23125;48.156;15.954;2023-11-22T14:22:40;8.10;64.10
37232;DHT22;23125;48.156;15.954;2023-11-22T14:25:07;8.10;64.00
37232;DHT22;23125;48.156;15.954;2023-11-22T14:27:40;8.10;64.00
37232;DHT22;23125;48.156;15.954;2023-11-22T14:30:07;8.10;64.00
37232;DHT22;23125;48.156;15.954;2023-11-22T14:32:34;8.00;63.90
37232;DHT22;23125;48.156;15.954;2023-11-22T14:35:04;8.10;64.00
37232;DHT22;23125;48.156;15.954;2023-11-22T14:37:31;8.00;63.90
37232;DHT22;23125;48.156;15.954;2023-11-22T14:40:00;8.00;63.90
37232;DHT22;23125;48.156;15.954;2023-11-22T14:42:26;8.00;63.90
37232;DHT22;23125;48.156;15.954;2023-11-22T14:44:53;8.00;63.80
37232;DHT22;23125;48.156;15.954;2023-11-22T14:47:20;8.00;63.90
37232;DHT22;23125;48.156;15.954;2023-11-22T14:49:51;8.00;63.90
37232;DHT22;23125;48.156;15.954;2023-11-22T14:52:18;8.00;63.70
37232;DHT22;23125;48.156;15.954;2023-11-22T14:54:47;8.00;63.60
37232;DHT22;23125;48.156;15.954;2023-11-22T14:57:13;7.90;63.60
37232;DHT22;23125;48.156;15.954;2023-11-22T14:59:43;7.90;63.60
37232;DHT22;23125;48.156;15.954;2023-11-22T15:02:10;7.90;63.80
37232;DHT22;23125;48.156;15.954;2023-11-22T15:04:40;7.90;63.70
37232;DHT22;23125;48.156;15.954;2023-11-22T15:07:06;7.90;63.70
37232;DHT22;23125;48.156;15.954;2023-11-22T15:09:32;7.90;63.60
37232;DHT22;23125;48.156;15.954;2023-11-22T15:11:59;7.80;63.50
37232;DHT22;23125;48.156;15.954;2023-11-22T15:14:32;7.90;64.30
37232;DHT22;23125;48.156;15.954;2023-11-22T15:16:59;7.80;63.70
37232;DHT22;23125;48.156;15.954;2023-11-22T15:19:32;7.80;63.70
37232;DHT22;23125;48.156;15.954;2023-11-22T15:21:58;7.80;63.70
37232;DHT22;23125;48.156;15.954;2023-11-22T15:24:25;7.80;63.80
37232;DHT22;23125;48.156;15.954;2023-11-22T15:26:52;7.80;63.70
37232;DHT22;23125;48.156;15.954;2023-11-22T15:29:18;7.80;63.60
37232;DHT22;23125;48.156;15.954;2023-11-22T15:31:44;7.80;63.60
37232;DHT22;23125;48.156;15.954;2023-11-22T15:34:10;7.80;63.40